createdAt,value
2022-08-20T00:01:12.571Z,24.09
2022-08-20T00:03:41.618Z,24.37
2022-08-20T00:06:23.321Z,24.12
2022-08-20T00:08:50.969Z,24.57
2022-08-20T00:11:22.899Z,24.78
2022-08-20T00:13:55.625Z,24.56
2022-08-20T00:16:25.308Z,24.31
2022-08-20T00:18:52.239Z,23.98
2022-08-20T00:21:21.207Z,24.05
2022-08-20T00:23:52.343Z,23.89
2022-08-20T00:26:20.392Z,23.72
2022-08-20T00:28:47.532Z,23.85
2022-08-20T00:31:19.299Z,23.75
2022-08-20T00:33:47.134Z,23.90
2022-08-20T00:36:15.784Z,23.87
2022-08-20T00:38:44.226Z,23.97
2022-08-20T00:41:14.778Z,24.31
2022-08-20T00:43:52.189Z,24.29
2022-08-20T00:46:31.682Z,24.15
2022-08-20T00:49:02.510Z,24.24
2022-08-20T00:51:35.187Z,24.31
2022-08-20T00:54:07.320Z,24.43
2022-08-20T00:56:34.512Z,24.13
2022-08-20T00:59:05.150Z,24.06
2022-08-20T01:01:34.595Z,24.02
2022-08-20T01:04:21.404Z,24.08
2022-08-20T01:06:48.673Z,23.88
2022-08-20T01:09:15.433Z,23.82
2022-08-20T01:11:42.523Z,23.64
2022-08-20T01:14:30.176Z,23.69
2022-08-20T01:17:02.409Z,23.87
2022-08-20T01:19:35.155Z,24.07
2022-08-20T01:22:26.649Z,24.17
2022-08-20T01:25:05.066Z,23.95
2022-08-20T01:27:33.680Z,23.98
2022-08-20T01:30:09.904Z,24.28
2022-08-20T01:32:36.593Z,24.59
2022-08-20T01:35:04.858Z,24.47
2022-08-20T01:37:31.920Z,24.39
2022-08-20T01:39:59.152Z,24.28
2022-08-20T01:42:52.818Z,24.31
2022-08-20T01:45:28.009Z,24.03
2022-08-20T01:47:57.655Z,23.93
2022-08-20T01:50:27.537Z,24.20
2022-08-20T01:53:09.309Z,24.28
2022-08-20T01:55:38.219Z,24.42
2022-08-20T01:58:05.451Z,24.31
2022-08-20T02:00:32.644Z,24.07
2022-08-20T02:02:59.314Z,24.05
2022-08-20T02:05:30.618Z,23.90
2022-08-20T02:07:57.737Z,23.73
2022-08-20T02:10:24.644Z,23.68
2022-08-20T02:12:51.388Z,23.71
2022-08-20T02:15:34.742Z,23.92
2022-08-20T02:18:08.254Z,23.79
2022-08-20T02:20:36.453Z,23.79
2022-08-20T02:23:03.614Z,23.72
2022-08-20T02:25:32.829Z,23.55
2022-08-20T02:28:02.528Z,23.27
2022-08-20T02:30:40.444Z,23.19
2022-08-20T02:33:09.939Z,23.23
2022-08-20T02:35:38.447Z,23.40
2022-08-20T02:38:05.637Z,23.40
2022-08-20T02:40:33.256Z,23.09
2022-08-20T02:43:01.600Z,23.38
2022-08-20T02:45:30.340Z,23.50
2022-08-20T02:47:59.170Z,23.62
2022-08-20T02:50:27.208Z,23.60
2022-08-20T02:52:54.575Z,23.60
2022-08-20T02:55:25.935Z,23.60
2022-08-20T02:57:58.662Z,23.64
2022-08-20T03:00:27.453Z,23.20
2022-08-20T03:02:54.279Z,23.26
2022-08-20T03:05:21.063Z,23.14
2022-08-20T03:07:53.501Z,23.49
2022-08-20T03:10:29.870Z,23.67
2022-08-20T03:12:56.844Z,23.56
2022-08-20T03:15:23.992Z,23.47
2022-08-20T03:17:50.703Z,23.40
2022-08-20T03:20:17.480Z,23.58
2022-08-20T03:22:51.794Z,23.61
2022-08-20T03:25:18.606Z,23.82
2022-08-20T03:27:45.653Z,23.82
2022-08-20T03:30:15.006Z,23.64
2022-08-20T03:32:41.953Z,23.43
2022-08-20T03:35:16.212Z,23.58
2022-08-20T03:37:48.100Z,23.61
2022-08-20T03:40:21.064Z,23.76
2022-08-20T03:42:47.649Z,23.77
2022-08-20T03:45:19.799Z,24.07
2022-08-20T03:47:48.489Z,23.80
2022-08-20T03:50:23.546Z,23.66
2022-08-20T03:52:54.736Z,23.67
2022-08-20T03:55:23.251Z,23.58
2022-08-20T03:57:56.749Z,23.39
2022-08-20T04:00:28.102Z,23.51
2022-08-20T04:02:57.242Z,23.62
2022-08-20T04:05:30.175Z,23.54
2022-08-20T04:08:03.253Z,23.26
2022-08-20T04:10:31.490Z,23.13
2022-08-20T04:12:58.126Z,23.01
2022-08-20T04:15:26.209Z,22.87
2022-08-20T04:17:54.235Z,23.01
2022-08-20T04:20:25.956Z,23.00
2022-08-20T04:22:58.611Z,23.24
2022-08-20T04:25:35.868Z,23.26
2022-08-20T04:28:05.608Z,23.05
2022-08-20T04:30:33.096Z,23.32
2022-08-20T04:33:00.786Z,23.38
2022-08-20T04:35:28.876Z,23.39
2022-08-20T04:38:04.932Z,23.44
2022-08-20T04:41:06.926Z,23.51
2022-08-20T04:43:35.957Z,23.32
2022-08-20T04:46:06.702Z,23.27
2022-08-20T04:48:33.711Z,23.23
2022-08-20T04:51:02.159Z,23.49
2022-08-20T04:53:31.057Z,23.33
2022-08-20T04:56:00.889Z,23.55
2022-08-20T04:58:34.480Z,23.58
2022-08-20T05:01:05.269Z,23.39
2022-08-20T05:03:32.978Z,23.31
2022-08-20T05:06:01.401Z,23.31
2022-08-20T05:08:29.306Z,23.40
2022-08-20T05:11:24.973Z,23.38
2022-08-20T05:13:44.322Z,23.50
2022-08-20T05:16:11.012Z,23.47
2022-08-20T05:18:37.653Z,23.37
2022-08-20T05:21:06.207Z,23.58
2022-08-20T05:23:39.710Z,23.56
2022-08-20T05:26:07.646Z,23.46
2022-08-20T05:28:36.887Z,23.60
2022-08-20T05:31:21.152Z,23.65
2022-08-20T05:33:51.742Z,23.69
2022-08-20T05:36:18.538Z,23.70
2022-08-20T05:38:45.271Z,23.48
2022-08-20T05:41:27.558Z,23.40
2022-08-20T05:44:01.499Z,23.51
2022-08-20T05:46:31.846Z,23.55
2022-08-20T05:49:00.114Z,23.54
2022-08-20T05:51:28.589Z,23.62
2022-08-20T05:53:57.981Z,23.62
2022-08-20T05:56:26.941Z,23.93
2022-08-20T05:58:53.878Z,23.89
2022-08-20T06:01:20.756Z,24.17
2022-08-20T06:04:06.049Z,24.32
2022-08-20T06:06:45.156Z,24.45
2022-08-20T06:09:14.470Z,24.48
2022-08-20T06:11:41.308Z,24.60
2022-08-20T06:14:08.201Z,24.59
2022-08-20T06:16:35.002Z,24.51
2022-08-20T06:19:05.527Z,24.65
2022-08-20T06:21:32.252Z,24.63
2022-08-20T06:24:00.552Z,24.74
2022-08-20T06:26:29.974Z,24.72
2022-08-20T06:28:58.567Z,24.91
2022-08-20T06:31:25.354Z,24.86
2022-08-20T06:33:52.149Z,25.05
2022-08-20T06:36:19.516Z,25.10
2022-08-20T06:38:47.022Z,25.21
2022-08-20T06:41:14.217Z,25.20
2022-08-20T06:43:40.910Z,25.20
2022-08-20T06:46:08.340Z,25.12
2022-08-20T06:48:37.173Z,25.15
2022-08-20T06:51:06.550Z,25.28
2022-08-20T06:53:33.151Z,25.32
2022-08-20T06:55:59.992Z,25.38
2022-08-20T06:58:36.856Z,25.42
2022-08-20T07:01:10.270Z,25.45
2022-08-20T07:03:39.090Z,25.56
2022-08-20T07:06:06.611Z,25.59
2022-08-20T07:08:34.114Z,25.58
2022-08-20T07:11:00.957Z,25.72
2022-08-20T07:13:29.261Z,25.82
2022-08-20T07:15:56.384Z,25.80
2022-08-20T07:18:28.303Z,25.76
2022-08-20T07:21:04.450Z,25.80
2022-08-20T07:23:31.787Z,25.72
2022-08-20T07:25:59.152Z,25.73
2022-08-20T07:28:31.933Z,25.81
2022-08-20T07:31:17.874Z,25.80
2022-08-20T07:33:47.392Z,25.95
2022-08-20T07:36:17.990Z,26.00
2022-08-20T07:38:48.926Z,25.99
2022-08-20T07:41:15.624Z,26.05
2022-08-20T07:43:45.780Z,26.12
2022-08-20T07:46:15.003Z,26.07
2022-08-20T07:48:46.871Z,26.14
2022-08-20T07:51:17.904Z,26.15
2022-08-20T07:53:46.923Z,26.11
2022-08-20T07:56:17.666Z,26.18
2022-08-20T07:58:50.576Z,26.17
2022-08-20T08:01:28.673Z,26.19
2022-08-20T08:03:57.650Z,26.14
2022-08-20T08:06:29.278Z,26.26
2022-08-20T08:09:17.594Z,26.24
2022-08-20T08:11:51.830Z,26.37
2022-08-20T08:14:24.988Z,26.46
2022-08-20T08:16:57.381Z,26.41
2022-08-20T08:19:27.052Z,26.44
2022-08-20T08:22:02.111Z,26.48
2022-08-20T08:24:29.059Z,26.54
2022-08-20T08:26:55.765Z,26.66
2022-08-20T08:29:22.497Z,26.63
2022-08-20T08:31:49.189Z,26.58
2022-08-20T08:34:15.959Z,26.71
2022-08-20T08:36:44.229Z,26.78
2022-08-20T08:39:11.044Z,26.75
2022-08-20T08:41:49.761Z,26.72
2022-08-20T08:44:23.283Z,26.82
2022-08-20T08:46:53.673Z,26.77
2022-08-20T08:49:33.932Z,26.79
2022-08-20T08:52:28.659Z,26.82
2022-08-20T08:54:58.764Z,26.77
2022-08-20T08:57:26.142Z,26.92
2022-08-20T09:00:04.713Z,27.03
2022-08-20T09:02:34.068Z,26.82
2022-08-20T09:05:09.253Z,26.83
2022-08-20T09:07:36.575Z,26.92
2022-08-20T09:10:03.800Z,27.02
2022-08-20T09:12:30.544Z,26.99
2022-08-20T09:14:57.565Z,27.16
2022-08-20T09:17:24.661Z,27.02
2022-08-20T09:19:52.575Z,27.26
2022-08-20T09:22:22.266Z,27.16
2022-08-20T09:24:50.213Z,27.23
2022-08-20T09:27:17.324Z,27.36
2022-08-20T09:29:44.212Z,27.39
2022-08-20T09:32:16.608Z,27.42
2022-08-20T09:34:51.819Z,27.42
2022-08-20T09:37:19.322Z,27.47
2022-08-20T09:39:46.057Z,27.68
2022-08-20T09:42:22.571Z,27.80
2022-08-20T09:44:49.607Z,27.68
2022-08-20T09:47:17.612Z,27.60
2022-08-20T09:49:45.336Z,27.74
2022-08-20T09:52:22.727Z,27.95
2022-08-20T09:54:50.517Z,28.14
2022-08-20T09:57:18.208Z,28.11
2022-08-20T09:59:48.711Z,28.23
2022-08-20T10:02:15.394Z,28.57
2022-08-20T10:04:49.212Z,28.60
2022-08-20T10:07:16.145Z,28.61
2022-08-20T10:09:43.200Z,28.54
2022-08-20T10:12:10.133Z,28.67
2022-08-20T10:14:36.800Z,28.61
2022-08-20T10:17:04.092Z,28.79
2022-08-20T10:19:31.631Z,28.93
2022-08-20T10:21:59.897Z,29.02
2022-08-20T10:24:27.184Z,29.25
2022-08-20T10:26:58.980Z,29.26
2022-08-20T10:29:26.668Z,29.28
2022-08-20T10:31:55.026Z,29.33
2022-08-20T10:34:21.663Z,29.37
2022-08-20T10:36:49.753Z,29.50
2022-08-20T10:39:16.622Z,29.77
2022-08-20T10:41:43.319Z,30.00
2022-08-20T10:44:10.300Z,29.99
2022-08-20T10:46:36.908Z,29.99
2022-08-20T10:49:03.979Z,29.94
2022-08-20T10:51:32.493Z,30.01
2022-08-20T10:54:00.336Z,30.13
2022-08-20T10:56:26.987Z,30.11
2022-08-20T10:58:53.790Z,30.07
2022-08-20T11:01:31.462Z,30.47
2022-08-20T11:04:00.878Z,30.64
2022-08-20T11:06:27.634Z,30.25
2022-08-20T11:08:54.297Z,30.30
2022-08-20T11:11:23.920Z,30.01
2022-08-20T11:13:50.662Z,30.00
2022-08-20T11:16:17.393Z,30.16
2022-08-20T11:18:47.331Z,30.30
2022-08-20T11:21:14.622Z,30.20
2022-08-20T11:23:41.353Z,30.45
2022-08-20T11:26:08.645Z,30.66
2022-08-20T11:28:36.753Z,30.58
2022-08-20T11:31:03.472Z,30.48
2022-08-20T11:33:30.367Z,31.02
2022-08-20T11:35:57.165Z,31.03
2022-08-20T11:38:24.004Z,30.96
2022-08-20T11:40:50.867Z,30.95
2022-08-20T11:43:18.320Z,31.34
2022-08-20T11:45:50.682Z,31.44
2022-08-20T11:48:18.244Z,31.50
2022-08-20T11:50:46.259Z,31.41
2022-08-20T11:53:13.063Z,31.55
2022-08-20T11:55:41.726Z,31.83
2022-08-20T11:58:09.623Z,31.67
2022-08-20T12:00:37.218Z,31.57
2022-08-20T12:03:09.588Z,31.68
2022-08-20T12:05:38.546Z,31.67
2022-08-20T12:08:06.188Z,32.20
2022-08-20T12:10:34.453Z,32.71
2022-08-20T12:13:02.662Z,32.75
2022-08-20T12:15:32.574Z,32.92
2022-08-20T12:17:59.479Z,32.99
2022-08-20T12:20:26.314Z,32.91
2022-08-20T12:22:54.122Z,32.93
2022-08-20T12:25:21.065Z,33.08
2022-08-20T12:27:47.948Z,33.22
2022-08-20T12:30:18.764Z,33.30
2022-08-20T12:32:46.113Z,32.88
2022-08-20T12:35:16.153Z,33.09
2022-08-20T12:37:44.192Z,32.81
2022-08-20T12:40:15.776Z,32.89
2022-08-20T12:42:43.878Z,32.94
2022-08-20T12:45:11.358Z,32.67
2022-08-20T12:47:40.836Z,33.17
2022-08-20T12:50:29.680Z,33.04
2022-08-20T12:52:59.348Z,33.11
2022-08-20T12:55:26.158Z,33.05
2022-08-20T12:57:56.698Z,33.36
2022-08-20T13:00:30.164Z,33.28
2022-08-20T13:02:59.288Z,33.31
2022-08-20T13:05:28.300Z,33.41
2022-08-20T13:07:55.839Z,33.27
2022-08-20T13:10:29.017Z,33.33
2022-08-20T13:12:56.103Z,33.32
2022-08-20T13:15:23.837Z,32.52
2022-08-20T13:17:55.128Z,31.63
2022-08-20T13:20:25.661Z,31.56
2022-08-20T13:22:58.100Z,31.61
2022-08-20T13:25:25.515Z,31.99
2022-08-20T13:27:58.721Z,32.06
2022-08-20T13:30:26.427Z,31.79
2022-08-20T13:33:01.416Z,31.41
2022-08-20T13:35:28.387Z,31.77
2022-08-20T13:37:55.181Z,31.96
2022-08-20T13:40:22.089Z,31.80
2022-08-20T13:42:49.075Z,31.55
2022-08-20T13:45:15.980Z,31.64
2022-08-20T13:47:42.977Z,31.43
2022-08-20T13:50:20.762Z,31.34
2022-08-20T13:52:48.390Z,31.33
2022-08-20T13:55:18.995Z,30.75
2022-08-20T13:57:47.236Z,30.74
2022-08-20T14:00:18.230Z,30.57
2022-08-20T14:02:45.011Z,30.19
2022-08-20T14:05:12.237Z,30.52
2022-08-20T14:07:43.616Z,30.57
2022-08-20T14:10:18.250Z,30.00
2022-08-20T14:12:46.421Z,30.54
2022-08-20T14:15:13.463Z,30.81
2022-08-20T14:17:43.468Z,30.96
2022-08-20T14:20:14.165Z,31.28
2022-08-20T14:22:42.657Z,31.50
2022-08-20T14:25:11.982Z,31.47
2022-08-20T14:27:39.227Z,30.79
2022-08-20T14:30:09.557Z,30.16
2022-08-20T14:32:36.433Z,29.58
2022-08-20T14:35:03.279Z,29.33
2022-08-20T14:37:33.111Z,29.04
2022-08-20T14:40:01.628Z,29.02
2022-08-20T14:42:29.892Z,29.70
2022-08-20T14:44:59.354Z,29.74
2022-08-20T14:47:34.760Z,29.70
2022-08-20T14:50:06.506Z,29.54
2022-08-20T14:52:36.648Z,29.52
2022-08-20T14:55:06.052Z,29.43
2022-08-20T14:57:34.011Z,29.48
2022-08-20T15:00:01.063Z,29.31
2022-08-20T15:02:27.921Z,29.31
2022-08-20T15:04:55.682Z,29.64
2022-08-20T15:07:31.841Z,29.53
2022-08-20T15:10:00.527Z,29.63
2022-08-20T15:12:27.910Z,29.66
2022-08-20T15:14:55.393Z,29.60
2022-08-20T15:17:26.674Z,29.77
2022-08-20T15:19:53.973Z,30.61
2022-08-20T15:22:22.071Z,31.02
2022-08-20T15:24:49.155Z,30.93
2022-08-20T15:27:22.866Z,31.02
2022-08-20T15:29:51.152Z,30.92
2022-08-20T15:32:19.092Z,31.13
2022-08-20T15:34:47.626Z,30.90
2022-08-20T15:37:20.981Z,30.54
2022-08-20T15:39:48.708Z,30.47
2022-08-20T15:42:16.039Z,30.59
2022-08-20T15:44:43.825Z,30.43
2022-08-20T15:47:16.405Z,30.01
2022-08-20T15:49:44.381Z,29.93
2022-08-20T15:52:11.909Z,29.69
2022-08-20T15:54:39.270Z,29.55
2022-08-20T15:57:11.969Z,29.58
2022-08-20T16:00:20.888Z,29.43
2022-08-20T16:02:53.561Z,29.34
2022-08-20T16:05:28.037Z,29.43
2022-08-20T16:08:30.465Z,29.33
2022-08-20T16:11:33.107Z,29.47
2022-08-20T16:14:07.513Z,29.38
2022-08-20T16:17:30.154Z,29.55
2022-08-20T16:20:08.906Z,29.29
2022-08-20T16:22:41.197Z,28.87
2022-08-20T16:25:08.954Z,29.03
2022-08-20T16:27:57.229Z,28.87
2022-08-20T16:30:36.464Z,28.83
2022-08-20T16:33:15.047Z,28.90
2022-08-20T16:35:57.102Z,28.90
2022-08-20T16:38:28.695Z,28.92
2022-08-20T16:41:01.514Z,28.87
2022-08-20T16:43:51.327Z,28.76
2022-08-20T16:46:21.214Z,28.78
2022-08-20T16:48:58.021Z,28.79
2022-08-20T16:51:51.925Z,28.80
2022-08-20T16:54:31.050Z,28.66
2022-08-20T16:57:06.400Z,28.72
2022-08-20T16:59:33.718Z,28.68
2022-08-20T17:02:10.485Z,28.62
2022-08-20T17:04:59.594Z,28.59
2022-08-20T17:07:54.638Z,28.52
2022-08-20T17:10:28.096Z,28.47
2022-08-20T17:13:13.562Z,28.63
2022-08-20T17:15:44.027Z,28.66
2022-08-20T17:18:38.653Z,28.66
2022-08-20T17:21:23.066Z,28.57
2022-08-20T17:24:04.165Z,28.49
2022-08-20T17:26:42.908Z,28.42
2022-08-20T17:29:25.948Z,28.38
2022-08-20T17:32:26.365Z,28.40
2022-08-20T17:35:01.556Z,28.39
2022-08-20T17:37:33.503Z,28.48
2022-08-20T17:40:08.943Z,28.55
2022-08-20T17:43:01.409Z,28.56
2022-08-20T17:45:42.319Z,28.54
2022-08-20T17:48:16.970Z,28.65
2022-08-20T17:50:44.278Z,28.74
2022-08-20T17:53:34.147Z,28.82
2022-08-20T17:56:21.551Z,28.78
2022-08-20T17:59:03.190Z,28.67
2022-08-20T18:01:30.322Z,28.61
2022-08-20T18:03:58.093Z,28.54
2022-08-20T18:06:30.657Z,28.47
2022-08-20T18:09:06.900Z,28.45
2022-08-20T18:11:43.403Z,28.60
2022-08-20T18:14:28.836Z,28.79
2022-08-20T18:16:58.361Z,28.75
2022-08-20T18:19:52.475Z,28.84
2022-08-20T18:22:25.061Z,28.84
2022-08-20T18:25:02.774Z,28.89
2022-08-20T18:27:40.025Z,28.86
2022-08-20T18:30:18.933Z,28.79
2022-08-20T18:32:48.167Z,28.70
2022-08-20T18:35:23.866Z,28.70
2022-08-20T18:37:50.612Z,28.71
2022-08-20T18:40:33.221Z,28.78
2022-08-20T18:43:31.678Z,28.76
2022-08-20T18:46:14.563Z,28.75
2022-08-20T18:48:51.453Z,28.79
2022-08-20T18:51:21.038Z,28.81
2022-08-20T18:53:51.919Z,28.77
2022-08-20T18:56:33.477Z,28.78
2022-08-20T18:59:05.484Z,28.74
2022-08-20T19:01:36.069Z,28.73
2022-08-20T19:04:16.738Z,28.71
2022-08-20T19:07:03.767Z,28.62
2022-08-20T19:09:46.322Z,28.61
2022-08-20T19:12:35.140Z,28.57
2022-08-20T19:15:11.782Z,28.48
2022-08-20T19:17:56.718Z,28.44
2022-08-20T19:20:28.285Z,28.40
2022-08-20T19:23:03.442Z,28.39
2022-08-20T19:25:38.092Z,28.39
2022-08-20T19:28:20.549Z,28.43
2022-08-20T19:30:47.577Z,28.30
2022-08-20T19:33:14.398Z,28.23
2022-08-20T19:35:41.127Z,28.25
2022-08-20T19:38:15.556Z,28.20
2022-08-20T19:40:46.228Z,28.20
2022-08-20T19:43:17.153Z,28.13
2022-08-20T19:45:54.564Z,28.07
2022-08-20T19:48:43.451Z,27.99
2022-08-20T19:51:53.277Z,28.00
2022-08-20T19:54:27.093Z,27.96
2022-08-20T19:57:06.860Z,27.96
2022-08-20T19:59:33.754Z,27.87
2022-08-20T20:02:20.641Z,27.85
2022-08-20T20:04:55.011Z,27.68
2022-08-20T20:07:45.513Z,27.74
2022-08-20T20:10:28.358Z,27.85
2022-08-20T20:12:57.947Z,27.71
2022-08-20T20:15:25.732Z,27.64
2022-08-20T20:17:54.081Z,27.53
2022-08-20T20:20:30.687Z,27.51
2022-08-20T20:23:06.345Z,27.60
2022-08-20T20:25:34.144Z,27.57
2022-08-20T20:28:24.397Z,27.52
2022-08-20T20:30:51.113Z,27.43
2022-08-20T20:33:26.347Z,27.38
2022-08-20T20:36:35.307Z,27.27
2022-08-20T20:39:12.398Z,27.28
2022-08-20T20:41:52.161Z,27.23
2022-08-20T20:44:23.216Z,27.16
2022-08-20T20:46:55.040Z,27.31
2022-08-20T20:49:29.559Z,26.92
2022-08-20T20:52:01.387Z,27.02
2022-08-20T20:54:40.983Z,26.89
2022-08-20T20:57:16.893Z,26.95
2022-08-20T20:59:43.901Z,26.96
2022-08-20T21:02:10.622Z,26.93
2022-08-20T21:04:40.721Z,26.95
2022-08-20T21:07:10.310Z,26.76
2022-08-20T21:09:39.299Z,26.82
2022-08-20T21:12:06.866Z,26.84
2022-08-20T21:14:34.271Z,26.75
2022-08-20T21:17:03.213Z,26.79
2022-08-20T21:19:30.461Z,26.69
2022-08-20T21:21:57.104Z,26.63
2022-08-20T21:24:23.951Z,26.65
2022-08-20T21:26:51.525Z,26.65
2022-08-20T21:29:32.707Z,26.75
2022-08-20T21:32:00.244Z,26.69
2022-08-20T21:34:27.036Z,26.62
2022-08-20T21:36:53.729Z,26.63
2022-08-20T21:39:21.445Z,26.74
2022-08-20T21:41:48.530Z,26.73
2022-08-20T21:44:26.094Z,26.73
2022-08-20T21:46:54.713Z,26.59
2022-08-20T21:49:22.701Z,26.45
2022-08-20T21:51:50.396Z,26.62
2022-08-20T21:54:17.786Z,26.52
2022-08-20T21:56:49.573Z,26.45
2022-08-20T21:59:17.234Z,26.46
2022-08-20T22:01:43.986Z,26.51
2022-08-20T22:04:10.765Z,26.45
2022-08-20T22:06:37.457Z,26.43
2022-08-20T22:09:04.759Z,26.38
2022-08-20T22:11:31.518Z,26.41
2022-08-20T22:13:58.124Z,26.37
2022-08-20T22:16:25.429Z,26.30
2022-08-20T22:18:52.757Z,26.33
2022-08-20T22:21:28.345Z,26.27
2022-08-20T22:24:00.200Z,26.20
2022-08-20T22:26:27.560Z,26.25
2022-08-20T22:28:54.662Z,26.35
2022-08-20T22:31:26.105Z,26.38
2022-08-20T22:33:52.902Z,26.57
2022-08-20T22:36:19.650Z,26.54
2022-08-20T22:38:52.787Z,26.38
2022-08-20T22:41:22.683Z,26.32
2022-08-20T22:43:56.669Z,26.31
2022-08-20T22:46:26.849Z,26.36
2022-08-20T22:48:54.234Z,26.69
2022-08-20T22:51:26.883Z,26.62
2022-08-20T22:53:53.713Z,26.37
2022-08-20T22:56:21.807Z,26.31
2022-08-20T22:58:50.311Z,26.28
2022-08-20T23:01:18.400Z,26.22
2022-08-20T23:03:45.391Z,26.24
2022-08-20T23:06:12.931Z,26.50
2022-08-20T23:08:40.651Z,26.24
2022-08-20T23:11:07.639Z,26.15
2022-08-20T23:13:34.615Z,26.00
2022-08-20T23:16:01.761Z,25.82
2022-08-20T23:18:29.466Z,25.75
2022-08-20T23:20:57.513Z,25.74
2022-08-20T23:23:26.550Z,25.74
2022-08-20T23:25:54.002Z,25.78
2022-08-20T23:28:24.663Z,25.81
2022-08-20T23:30:51.997Z,25.71
2022-08-20T23:33:19.136Z,25.66
2022-08-20T23:35:46.304Z,25.61
2022-08-20T23:38:13.702Z,25.60
2022-08-20T23:40:41.358Z,25.52
2022-08-20T23:43:09.596Z,25.67
2022-08-20T23:45:39.626Z,25.63
2022-08-20T23:48:07.934Z,26.01
2022-08-20T23:50:34.731Z,25.94
2022-08-20T23:53:01.523Z,25.67
2022-08-20T23:55:28.241Z,25.89
2022-08-20T23:57:55.043Z,25.77
